Ghanzi, Botswana
Current Conditions -  °F | °C
As of 8:00 AM on Friday 19 Dec 2014 (Local Time) from FYGF Reporting Station
Clear Clear  
Wind Chill: 73°   Ceiling: Unl
Heat Index: 73°   Visibility: 6mi
Dew Point: 34°   Wind: 6mph
Humidity: 23%   Direction: 210°SSW
Pressure: 30.15"   Gusts: 17mph
Location:  21.7°S, 21.64°E
Report Text: FYGF 190600Z 21005G15KT CAVOK 23/01 Q1021
Loading
Personal Weather Stations






























Interactive Weather Map New forecast layout! Learn more

10-Day Weather Forecast

Advertisements
Track Severe Weather on mobile